sensor_id;sensor_type;location;lat;lon;timestamp;P1;durP1;ratioP1;P2;durP2;ratioP2
67571;SDS011;54397;47.506;19.158;2022-08-18T00:03:10;8.93;;;4.40;;
67571;SDS011;54397;47.506;19.158;2022-08-18T00:06:55;7.28;;;4.57;;
67571;SDS011;54397;47.506;19.158;2022-08-18T00:10:16;10.48;;;7.65;;
67571;SDS011;54397;47.506;19.158;2022-08-18T00:13:39;10.07;;;4.75;;
67571;SDS011;54397;47.506;19.158;2022-08-18T00:17:03;8.40;;;4.90;;
67571;SDS011;54397;47.506;19.158;2022-08-18T00:20:25;6.20;;;4.35;;
67571;SDS011;54397;47.506;19.158;2022-08-18T00:23:49;8.10;;;4.40;;
67571;SDS011;54397;47.506;19.158;2022-08-18T00:27:13;7.18;;;4.47;;
67571;SDS011;54397;47.506;19.158;2022-08-18T00:30:40;7.72;;;4.40;;
67571;SDS011;54397;47.506;19.158;2022-08-18T00:37:24;10.80;;;8.02;;
67571;SDS011;54397;47.506;19.158;2022-08-18T00:40:46;8.15;;;5.10;;
67571;SDS011;54397;47.506;19.158;2022-08-18T00:44:09;6.32;;;4.57;;
67571;SDS011;54397;47.506;19.158;2022-08-18T00:47:32;9.13;;;4.80;;
67571;SDS011;54397;47.506;19.158;2022-08-18T00:51:06;8.50;;;4.85;;
67571;SDS011;54397;47.506;19.158;2022-08-18T00:54:31;6.93;;;4.93;;
67571;SDS011;54397;47.506;19.158;2022-08-18T00:58:02;10.63;;;4.85;;
67571;SDS011;54397;47.506;19.158;2022-08-18T01:01:33;10.30;;;5.20;;
67571;SDS011;54397;47.506;19.158;2022-08-18T01:04:58;6.93;;;4.68;;
67571;SDS011;54397;47.506;19.158;2022-08-18T01:08:28;8.18;;;5.15;;
67571;SDS011;54397;47.506;19.158;2022-08-18T01:11:50;6.90;;;4.82;;
67571;SDS011;54397;47.506;19.158;2022-08-18T01:15:14;9.45;;;5.28;;
67571;SDS011;54397;47.506;19.158;2022-08-18T01:18:50;9.82;;;4.72;;
67571;SDS011;54397;47.506;19.158;2022-08-18T01:25:53;7.70;;;5.40;;
67571;SDS011;54397;47.506;19.158;2022-08-18T01:29:20;6.93;;;5.00;;
67571;SDS011;54397;47.506;19.158;2022-08-18T01:32:41;7.85;;;5.03;;
67571;SDS011;54397;47.506;19.158;2022-08-18T01:36:13;10.43;;;4.93;;
67571;SDS011;54397;47.506;19.158;2022-08-18T01:39:39;8.55;;;5.15;;
67571;SDS011;54397;47.506;19.158;2022-08-18T01:43:21;10.73;;;5.25;;
67571;SDS011;54397;47.506;19.158;2022-08-18T01:46:45;8.25;;;5.30;;
67571;SDS011;54397;47.506;19.158;2022-08-18T01:50:07;9.88;;;5.57;;
67571;SDS011;54397;47.506;19.158;2022-08-18T01:53:31;10.93;;;5.40;;
67571;SDS011;54397;47.506;19.158;2022-08-18T01:56:55;11.88;;;5.75;;
67571;SDS011;54397;47.506;19.158;2022-08-18T02:00:17;9.80;;;5.60;;
67571;SDS011;54397;47.506;19.158;2022-08-18T02:03:40;8.48;;;5.10;;
67571;SDS011;54397;47.506;19.158;2022-08-18T02:07:08;7.97;;;5.10;;
67571;SDS011;54397;47.506;19.158;2022-08-18T02:10:31;11.63;;;5.18;;
67571;SDS011;54397;47.506;19.158;2022-08-18T02:13:55;6.50;;;5.30;;
67571;SDS011;54397;47.506;19.158;2022-08-18T02:17:19;5.38;;;4.88;;
67571;SDS011;54397;47.506;19.158;2022-08-18T02:20:40;10.63;;;4.75;;
67571;SDS011;54397;47.506;19.158;2022-08-18T02:24:04;9.13;;;5.10;;
67571;SDS011;54397;47.506;19.158;2022-08-18T02:27:27;9.38;;;5.18;;
67571;SDS011;54397;47.506;19.158;2022-08-18T02:30:50;8.60;;;4.93;;
67571;SDS011;54397;47.506;19.158;2022-08-18T02:34:11;9.07;;;5.82;;
67571;SDS011;54397;47.506;19.158;2022-08-18T02:37:33;7.90;;;5.35;;
67571;SDS011;54397;47.506;19.158;2022-08-18T02:40:57;10.98;;;5.30;;
67571;SDS011;54397;47.506;19.158;2022-08-18T02:44:20;8.00;;;5.00;;
67571;SDS011;54397;47.506;19.158;2022-08-18T02:47:44;8.13;;;5.13;;
67571;SDS011;54397;47.506;19.158;2022-08-18T02:51:13;8.35;;;5.28;;
67571;SDS011;54397;47.506;19.158;2022-08-18T02:54:36;12.43;;;5.70;;
67571;SDS011;54397;47.506;19.158;2022-08-18T02:57:58;12.07;;;5.57;;
67571;SDS011;54397;47.506;19.158;2022-08-18T03:01:24;6.20;;;5.38;;
67571;SDS011;54397;47.506;19.158;2022-08-18T03:05:01;6.38;;;5.65;;
67571;SDS011;54397;47.506;19.158;2022-08-18T03:08:22;9.40;;;5.68;;
67571;SDS011;54397;47.506;19.158;2022-08-18T03:11:45;9.75;;;5.32;;
67571;SDS011;54397;47.506;19.158;2022-08-18T03:15:10;8.18;;;5.70;;
67571;SDS011;54397;47.506;19.158;2022-08-18T03:18:35;9.40;;;5.93;;
67571;SDS011;54397;47.506;19.158;2022-08-18T03:21:58;7.03;;;6.18;;
67571;SDS011;54397;47.506;19.158;2022-08-18T03:25:23;7.05;;;5.80;;
67571;SDS011;54397;47.506;19.158;2022-08-18T03:28:47;11.02;;;6.32;;
67571;SDS011;54397;47.506;19.158;2022-08-18T03:32:11;9.82;;;6.05;;
67571;SDS011;54397;47.506;19.158;2022-08-18T03:35:33;8.45;;;6.00;;
67571;SDS011;54397;47.506;19.158;2022-08-18T03:39:00;16.83;;;7.82;;
67571;SDS011;54397;47.506;19.158;2022-08-18T03:42:23;10.65;;;5.95;;
67571;SDS011;54397;47.506;19.158;2022-08-18T03:45:45;10.93;;;6.35;;
67571;SDS011;54397;47.506;19.158;2022-08-18T03:49:06;7.57;;;6.28;;
67571;SDS011;54397;47.506;19.158;2022-08-18T03:52:31;9.50;;;7.10;;
67571;SDS011;54397;47.506;19.158;2022-08-18T03:55:53;11.73;;;6.88;;
67571;SDS011;54397;47.506;19.158;2022-08-18T03:59:19;11.50;;;6.97;;
67571;SDS011;54397;47.506;19.158;2022-08-18T04:02:43;10.07;;;6.90;;
67571;SDS011;54397;47.506;19.158;2022-08-18T04:06:05;11.48;;;7.95;;
67571;SDS011;54397;47.506;19.158;2022-08-18T04:09:33;11.20;;;8.30;;
67571;SDS011;54397;47.506;19.158;2022-08-18T04:13:00;9.55;;;7.60;;
67571;SDS011;54397;47.506;19.158;2022-08-18T04:16:27;11.27;;;7.78;;
67571;SDS011;54397;47.506;19.158;2022-08-18T04:19:58;12.75;;;6.65;;
67571;SDS011;54397;47.506;19.158;2022-08-18T04:23:22;14.20;;;7.35;;
67571;SDS011;54397;47.506;19.158;2022-08-18T04:26:51;9.60;;;7.10;;
67571;SDS011;54397;47.506;19.158;2022-08-18T04:30:14;13.45;;;6.75;;
67571;SDS011;54397;47.506;19.158;2022-08-18T04:33:38;11.95;;;6.60;;
67571;SDS011;54397;47.506;19.158;2022-08-18T04:37:02;11.23;;;7.00;;
67571;SDS011;54397;47.506;19.158;2022-08-18T04:40:24;12.27;;;7.60;;
67571;SDS011;54397;47.506;19.158;2022-08-18T04:43:48;13.80;;;7.43;;
67571;SDS011;54397;47.506;19.158;2022-08-18T04:47:13;10.75;;;7.38;;
67571;SDS011;54397;47.506;19.158;2022-08-18T04:50:35;11.85;;;7.10;;
67571;SDS011;54397;47.506;19.158;2022-08-18T04:53:57;9.05;;;7.10;;
67571;SDS011;54397;47.506;19.158;2022-08-18T04:57:23;12.85;;;7.32;;
67571;SDS011;54397;47.506;19.158;2022-08-18T05:00:49;13.52;;;7.18;;
67571;SDS011;54397;47.506;19.158;2022-08-18T05:04:20;12.52;;;7.20;;
67571;SDS011;54397;47.506;19.158;2022-08-18T05:07:42;8.77;;;7.25;;
67571;SDS011;54397;47.506;19.158;2022-08-18T05:11:06;12.40;;;7.30;;
67571;SDS011;54397;47.506;19.158;2022-08-18T05:14:30;11.48;;;6.95;;
67571;SDS011;54397;47.506;19.158;2022-08-18T05:17:59;9.48;;;6.93;;
67571;SDS011;54397;47.506;19.158;2022-08-18T05:21:22;11.23;;;7.53;;
67571;SDS011;54397;47.506;19.158;2022-08-18T05:24:50;12.75;;;6.97;;
67571;SDS011;54397;47.506;19.158;2022-08-18T05:28:14;10.55;;;7.47;;
67571;SDS011;54397;47.506;19.158;2022-08-18T05:31:38;9.65;;;7.47;;
67571;SDS011;54397;47.506;19.158;2022-08-18T05:35:04;15.90;;;8.18;;
67571;SDS011;54397;47.506;19.158;2022-08-18T05:38:45;14.93;;;7.57;;
67571;SDS011;54397;47.506;19.158;2022-08-18T05:42:17;10.35;;;7.65;;
67571;SDS011;54397;47.506;19.158;2022-08-18T05:45:48;11.02;;;8.13;;
67571;SDS011;54397;47.506;19.158;2022-08-18T05:52:42;13.13;;;7.28;;
67571;SDS011;54397;47.506;19.158;2022-08-18T05:56:34;11.77;;;7.78;;
67571;SDS011;54397;47.506;19.158;2022-08-18T06:00:09;17.08;;;7.38;;
67571;SDS011;54397;47.506;19.158;2022-08-18T06:04:21;11.43;;;7.60;;
67571;SDS011;54397;47.506;19.158;2022-08-18T06:07:36;13.45;;;7.43;;
67571;SDS011;54397;47.506;19.158;2022-08-18T06:11:04;11.05;;;7.35;;
67571;SDS011;54397;47.506;19.158;2022-08-18T06:14:37;14.70;;;7.57;;
67571;SDS011;54397;47.506;19.158;2022-08-18T06:25:56;19.33;;;7.28;;
67571;SDS011;54397;47.506;19.158;2022-08-18T06:37:30;9.65;;;6.93;;
67571;SDS011;54397;47.506;19.158;2022-08-18T06:41:17;12.52;;;6.57;;
67571;SDS011;54397;47.506;19.158;2022-08-18T06:45:08;9.05;;;6.85;;
67571;SDS011;54397;47.506;19.158;2022-08-18T06:48:39;10.90;;;6.63;;
67571;SDS011;54397;47.506;19.158;2022-08-18T06:52:21;7.03;;;6.28;;
67571;SDS011;54397;47.506;19.158;2022-08-18T06:55:56;8.68;;;6.43;;
67571;SDS011;54397;47.506;19.158;2022-08-18T06:59:30;10.73;;;6.32;;
67571;SDS011;54397;47.506;19.158;2022-08-18T07:02:57;11.32;;;6.50;;
67571;SDS011;54397;47.506;19.158;2022-08-18T07:06:38;9.27;;;6.40;;
67571;SDS011;54397;47.506;19.158;2022-08-18T07:10:03;13.23;;;6.55;;
67571;SDS011;54397;47.506;19.158;2022-08-18T07:13:27;8.82;;;6.53;;
67571;SDS011;54397;47.506;19.158;2022-08-18T07:17:18;8.02;;;7.20;;
67571;SDS011;54397;47.506;19.158;2022-08-18T07:21:02;8.80;;;6.10;;
67571;SDS011;54397;47.506;19.158;2022-08-18T07:24:31;9.20;;;6.10;;
67571;SDS011;54397;47.506;19.158;2022-08-18T07:28:01;7.85;;;6.03;;
67571;SDS011;54397;47.506;19.158;2022-08-18T07:35:09;12.82;;;6.45;;
67571;SDS011;54397;47.506;19.158;2022-08-18T07:39:10;10.13;;;5.95;;
67571;SDS011;54397;47.506;19.158;2022-08-18T07:42:38;10.05;;;6.20;;
67571;SDS011;54397;47.506;19.158;2022-08-18T07:49:53;13.82;;;6.20;;
67571;SDS011;54397;47.506;19.158;2022-08-18T07:53:48;11.10;;;5.88;;
67571;SDS011;54397;47.506;19.158;2022-08-18T08:01:04;9.38;;;6.13;;
67571;SDS011;54397;47.506;19.158;2022-08-18T08:08:19;11.13;;;5.87;;
67571;SDS011;54397;47.506;19.158;2022-08-18T08:15:54;9.05;;;6.30;;
67571;SDS011;54397;47.506;19.158;2022-08-18T08:19:31;9.82;;;6.55;;
67571;SDS011;54397;47.506;19.158;2022-08-18T08:27:06;10.27;;;6.10;;
67571;SDS011;54397;47.506;19.158;2022-08-18T08:30:45;13.63;;;6.50;;
67571;SDS011;54397;47.506;19.158;2022-08-18T08:38:17;14.33;;;5.63;;
67571;SDS011;54397;47.506;19.158;2022-08-18T08:42:15;8.90;;;5.50;;
67571;SDS011;54397;47.506;19.158;2022-08-18T08:46:18;11.13;;;5.70;;
67571;SDS011;54397;47.506;19.158;2022-08-18T08:49:53;8.45;;;5.35;;
67571;SDS011;54397;47.506;19.158;2022-08-18T08:57:17;8.73;;;5.88;;
67571;SDS011;54397;47.506;19.158;2022-08-18T09:00:46;9.18;;;5.32;;
67571;SDS011;54397;47.506;19.158;2022-08-18T09:07:56;12.05;;;5.43;;
67571;SDS011;54397;47.506;19.158;2022-08-18T09:11:55;8.35;;;5.32;;
67571;SDS011;54397;47.506;19.158;2022-08-18T09:23:09;9.55;;;5.65;;
67571;SDS011;54397;47.506;19.158;2022-08-18T09:30:03;11.10;;;5.27;;
67571;SDS011;54397;47.506;19.158;2022-08-18T09:33:52;10.18;;;5.35;;
67571;SDS011;54397;47.506;19.158;2022-08-18T09:41:34;10.02;;;5.63;;
67571;SDS011;54397;47.506;19.158;2022-08-18T09:45:10;6.88;;;5.20;;
67571;SDS011;54397;47.506;19.158;2022-08-18T09:52:58;8.45;;;4.78;;
67571;SDS011;54397;47.506;19.158;2022-08-18T10:00:18;11.45;;;4.97;;
67571;SDS011;54397;47.506;19.158;2022-08-18T10:07:43;10.07;;;4.47;;
67571;SDS011;54397;47.506;19.158;2022-08-18T10:14:57;6.88;;;4.50;;
67571;SDS011;54397;47.506;19.158;2022-08-18T10:22:04;4.32;;;3.70;;
67571;SDS011;54397;47.506;19.158;2022-08-18T10:25:31;6.95;;;4.22;;
67571;SDS011;54397;47.506;19.158;2022-08-18T10:28:55;8.35;;;4.20;;
67571;SDS011;54397;47.506;19.158;2022-08-18T10:32:38;7.53;;;4.43;;
67571;SDS011;54397;47.506;19.158;2022-08-18T10:36:31;6.07;;;3.90;;
67571;SDS011;54397;47.506;19.158;2022-08-18T10:40:03;6.18;;;4.30;;
67571;SDS011;54397;47.506;19.158;2022-08-18T10:43:42;7.68;;;3.92;;
67571;SDS011;54397;47.506;19.158;2022-08-18T10:47:27;4.95;;;3.60;;
67571;SDS011;54397;47.506;19.158;2022-08-18T10:51:15;7.25;;;4.00;;
67571;SDS011;54397;47.506;19.158;2022-08-18T11:05:35;9.20;;;4.25;;
67571;SDS011;54397;47.506;19.158;2022-08-18T11:09:00;4.78;;;3.60;;
67571;SDS011;54397;47.506;19.158;2022-08-18T11:19:56;4.05;;;3.47;;
67571;SDS011;54397;47.506;19.158;2022-08-18T11:23:21;4.35;;;3.13;;
67571;SDS011;54397;47.506;19.158;2022-08-18T11:30:16;5.03;;;3.03;;
67571;SDS011;54397;47.506;19.158;2022-08-18T11:33:50;5.15;;;3.45;;
67571;SDS011;54397;47.506;19.158;2022-08-18T11:37:22;7.10;;;3.30;;
67571;SDS011;54397;47.506;19.158;2022-08-18T11:40:48;7.85;;;3.40;;
67571;SDS011;54397;47.506;19.158;2022-08-18T11:44:32;7.10;;;3.60;;
67571;SDS011;54397;47.506;19.158;2022-08-18T11:51:24;3.33;;;3.03;;
67571;SDS011;54397;47.506;19.158;2022-08-18T11:54:57;6.43;;;4.50;;
67571;SDS011;54397;47.506;19.158;2022-08-18T11:58:47;8.65;;;4.18;;
67571;SDS011;54397;47.506;19.158;2022-08-18T12:02:17;4.28;;;2.90;;
67571;SDS011;54397;47.506;19.158;2022-08-18T12:05:41;3.55;;;3.00;;
67571;SDS011;54397;47.506;19.158;2022-08-18T12:09:45;7.05;;;3.03;;
67571;SDS011;54397;47.506;19.158;2022-08-18T12:13:29;8.00;;;3.22;;
67571;SDS011;54397;47.506;19.158;2022-08-18T12:16:53;4.63;;;3.22;;
67571;SDS011;54397;47.506;19.158;2022-08-18T12:20:15;6.93;;;3.00;;
67571;SDS011;54397;47.506;19.158;2022-08-18T12:23:40;9.38;;;3.00;;
67571;SDS011;54397;47.506;19.158;2022-08-18T12:27:13;5.38;;;3.30;;
67571;SDS011;54397;47.506;19.158;2022-08-18T12:30:42;9.80;;;3.60;;
67571;SDS011;54397;47.506;19.158;2022-08-18T12:34:04;5.95;;;2.95;;
67571;SDS011;54397;47.506;19.158;2022-08-18T12:37:33;5.40;;;3.38;;
67571;SDS011;54397;47.506;19.158;2022-08-18T12:41:15;5.55;;;3.20;;
67571;SDS011;54397;47.506;19.158;2022-08-18T12:44:46;8.25;;;3.20;;
67571;SDS011;54397;47.506;19.158;2022-08-18T12:48:10;7.25;;;3.20;;
67571;SDS011;54397;47.506;19.158;2022-08-18T12:51:37;4.13;;;3.35;;
67571;SDS011;54397;47.506;19.158;2022-08-18T12:54:59;9.93;;;4.10;;
67571;SDS011;54397;47.506;19.158;2022-08-18T12:58:23;6.85;;;5.22;;
67571;SDS011;54397;47.506;19.158;2022-08-18T13:01:50;8.90;;;3.35;;
67571;SDS011;54397;47.506;19.158;2022-08-18T13:05:20;4.95;;;3.10;;
67571;SDS011;54397;47.506;19.158;2022-08-18T13:08:48;8.43;;;3.55;;
67571;SDS011;54397;47.506;19.158;2022-08-18T13:12:11;5.63;;;3.20;;
67571;SDS011;54397;47.506;19.158;2022-08-18T13:15:37;4.70;;;3.33;;
67571;SDS011;54397;47.506;19.158;2022-08-18T13:19:05;6.22;;;3.15;;
67571;SDS011;54397;47.506;19.158;2022-08-18T13:25:54;10.38;;;3.53;;
67571;SDS011;54397;47.506;19.158;2022-08-18T13:29:22;7.32;;;3.33;;
67571;SDS011;54397;47.506;19.158;2022-08-18T13:32:46;9.10;;;3.33;;
67571;SDS011;54397;47.506;19.158;2022-08-18T13:36:22;8.57;;;7.22;;
67571;SDS011;54397;47.506;19.158;2022-08-18T13:39:49;6.68;;;3.60;;
67571;SDS011;54397;47.506;19.158;2022-08-18T13:43:13;7.68;;;3.47;;
67571;SDS011;54397;47.506;19.158;2022-08-18T13:46:38;7.28;;;3.72;;
67571;SDS011;54397;47.506;19.158;2022-08-18T13:50:12;5.10;;;3.10;;
67571;SDS011;54397;47.506;19.158;2022-08-18T13:53:35;4.07;;;3.10;;
67571;SDS011;54397;47.506;19.158;2022-08-18T13:57:18;4.75;;;3.33;;
67571;SDS011;54397;47.506;19.158;2022-08-18T14:00:42;4.60;;;3.05;;
67571;SDS011;54397;47.506;19.158;2022-08-18T14:04:06;5.43;;;3.35;;
67571;SDS011;54397;47.506;19.158;2022-08-18T14:07:35;7.20;;;3.55;;
67571;SDS011;54397;47.506;19.158;2022-08-18T14:10:58;9.48;;;8.48;;
67571;SDS011;54397;47.506;19.158;2022-08-18T14:14:21;15.18;;;10.70;;
67571;SDS011;54397;47.506;19.158;2022-08-18T14:17:45;7.15;;;3.83;;
67571;SDS011;54397;47.506;19.158;2022-08-18T14:21:08;7.32;;;3.70;;
67571;SDS011;54397;47.506;19.158;2022-08-18T14:24:49;7.30;;;4.20;;
67571;SDS011;54397;47.506;19.158;2022-08-18T14:28:32;7.57;;;4.30;;
67571;SDS011;54397;47.506;19.158;2022-08-18T14:31:54;7.28;;;4.72;;
67571;SDS011;54397;47.506;19.158;2022-08-18T14:35:17;9.90;;;4.80;;
67571;SDS011;54397;47.506;19.158;2022-08-18T14:38:54;12.43;;;5.60;;
67571;SDS011;54397;47.506;19.158;2022-08-18T14:42:20;9.65;;;5.80;;
67571;SDS011;54397;47.506;19.158;2022-08-18T14:46:04;8.10;;;5.97;;
67571;SDS011;54397;47.506;19.158;2022-08-18T14:49:30;9.07;;;5.93;;
67571;SDS011;54397;47.506;19.158;2022-08-18T14:52:55;8.73;;;6.03;;
67571;SDS011;54397;47.506;19.158;2022-08-18T14:56:19;15.60;;;6.47;;
67571;SDS011;54397;47.506;19.158;2022-08-18T14:59:50;13.40;;;6.90;;
67571;SDS011;54397;47.506;19.158;2022-08-18T15:03:12;9.18;;;7.22;;
67571;SDS011;54397;47.506;19.158;2022-08-18T15:06:34;10.40;;;8.05;;
67571;SDS011;54397;47.506;19.158;2022-08-18T15:09:55;8.50;;;6.30;;
67571;SDS011;54397;47.506;19.158;2022-08-18T15:13:40;11.05;;;6.20;;
67571;SDS011;54397;47.506;19.158;2022-08-18T15:17:07;12.05;;;6.43;;
67571;SDS011;54397;47.506;19.158;2022-08-18T15:20:33;11.45;;;7.15;;
67571;SDS011;54397;47.506;19.158;2022-08-18T15:24:15;10.65;;;6.43;;
67571;SDS011;54397;47.506;19.158;2022-08-18T15:28:02;9.20;;;6.28;;
67571;SDS011;54397;47.506;19.158;2022-08-18T15:31:36;8.75;;;4.90;;
67571;SDS011;54397;47.506;19.158;2022-08-18T15:35:21;10.20;;;5.07;;
67571;SDS011;54397;47.506;19.158;2022-08-18T15:38:45;9.05;;;4.43;;
67571;SDS011;54397;47.506;19.158;2022-08-18T15:42:10;9.95;;;4.50;;
67571;SDS011;54397;47.506;19.158;2022-08-18T15:45:35;8.80;;;4.50;;
67571;SDS011;54397;47.506;19.158;2022-08-18T15:49:13;5.55;;;3.67;;
67571;SDS011;54397;47.506;19.158;2022-08-18T15:52:35;5.38;;;3.28;;
67571;SDS011;54397;47.506;19.158;2022-08-18T15:56:01;9.93;;;3.27;;
67571;SDS011;54397;47.506;19.158;2022-08-18T15:59:25;8.10;;;4.10;;
67571;SDS011;54397;47.506;19.158;2022-08-18T16:03:01;9.27;;;4.20;;
67571;SDS011;54397;47.506;19.158;2022-08-18T16:06:36;9.05;;;3.28;;
67571;SDS011;54397;47.506;19.158;2022-08-18T16:10:02;6.93;;;3.70;;
67571;SDS011;54397;47.506;19.158;2022-08-18T16:13:25;9.88;;;3.90;;
67571;SDS011;54397;47.506;19.158;2022-08-18T16:16:49;7.10;;;3.25;;
67571;SDS011;54397;47.506;19.158;2022-08-18T16:20:11;9.43;;;3.47;;
67571;SDS011;54397;47.506;19.158;2022-08-18T16:23:34;5.57;;;2.90;;
67571;SDS011;54397;47.506;19.158;2022-08-18T16:26:59;8.20;;;3.88;;
67571;SDS011;54397;47.506;19.158;2022-08-18T16:30:22;10.25;;;3.30;;
67571;SDS011;54397;47.506;19.158;2022-08-18T16:33:48;11.30;;;3.65;;
67571;SDS011;54397;47.506;19.158;2022-08-18T16:37:13;9.50;;;3.22;;
67571;SDS011;54397;47.506;19.158;2022-08-18T16:44:02;9.88;;;3.00;;
67571;SDS011;54397;47.506;19.158;2022-08-18T16:47:24;8.38;;;3.00;;
67571;SDS011;54397;47.506;19.158;2022-08-18T16:50:48;13.27;;;4.15;;
67571;SDS011;54397;47.506;19.158;2022-08-18T16:57:38;8.75;;;2.97;;
67571;SDS011;54397;47.506;19.158;2022-08-18T17:01:23;6.97;;;3.05;;
67571;SDS011;54397;47.506;19.158;2022-08-18T17:05:09;6.68;;;2.55;;
67571;SDS011;54397;47.506;19.158;2022-08-18T17:08:32;5.68;;;2.60;;
67571;SDS011;54397;47.506;19.158;2022-08-18T17:11:55;6.15;;;2.80;;
67571;SDS011;54397;47.506;19.158;2022-08-18T17:15:19;9.77;;;3.13;;
67571;SDS011;54397;47.506;19.158;2022-08-18T17:18:42;12.30;;;3.83;;
67571;SDS011;54397;47.506;19.158;2022-08-18T17:22:09;7.13;;;3.30;;
67571;SDS011;54397;47.506;19.158;2022-08-18T17:25:33;15.75;;;3.90;;
67571;SDS011;54397;47.506;19.158;2022-08-18T17:29:09;15.02;;;3.95;;
67571;SDS011;54397;47.506;19.158;2022-08-18T17:36:23;10.95;;;3.20;;
67571;SDS011;54397;47.506;19.158;2022-08-18T17:39:54;7.88;;;3.05;;
67571;SDS011;54397;47.506;19.158;2022-08-18T17:43:24;13.13;;;3.08;;
67571;SDS011;54397;47.506;19.158;2022-08-18T17:46:50;15.00;;;3.97;;
67571;SDS011;54397;47.506;19.158;2022-08-18T17:50:35;8.38;;;3.30;;
67571;SDS011;54397;47.506;19.158;2022-08-18T17:54:20;10.40;;;3.70;;
67571;SDS011;54397;47.506;19.158;2022-08-18T17:57:49;18.25;;;3.40;;
67571;SDS011;54397;47.506;19.158;2022-08-18T18:01:19;14.25;;;3.53;;
67571;SDS011;54397;47.506;19.158;2022-08-18T18:04:44;13.65;;;5.90;;
67571;SDS011;54397;47.506;19.158;2022-08-18T18:08:06;17.80;;;4.60;;
67571;SDS011;54397;47.506;19.158;2022-08-18T18:11:39;20.15;;;4.43;;
67571;SDS011;54397;47.506;19.158;2022-08-18T18:15:10;15.68;;;3.90;;
67571;SDS011;54397;47.506;19.158;2022-08-18T18:18:34;20.48;;;4.10;;
67571;SDS011;54397;47.506;19.158;2022-08-18T18:22:06;20.52;;;3.83;;
67571;SDS011;54397;47.506;19.158;2022-08-18T18:25:31;14.85;;;3.63;;
67571;SDS011;54397;47.506;19.158;2022-08-18T18:29:13;10.02;;;3.75;;
67571;SDS011;54397;47.506;19.158;2022-08-18T18:36:35;12.43;;;4.25;;
67571;SDS011;54397;47.506;19.158;2022-08-18T18:40:07;10.27;;;4.03;;
67571;SDS011;54397;47.506;19.158;2022-08-18T18:43:41;13.00;;;4.20;;
67571;SDS011;54397;47.506;19.158;2022-08-18T18:51:03;11.65;;;4.75;;
67571;SDS011;54397;47.506;19.158;2022-08-18T18:54:54;9.93;;;4.95;;
67571;SDS011;54397;47.506;19.158;2022-08-18T18:58:44;14.85;;;4.72;;
67571;SDS011;54397;47.506;19.158;2022-08-18T19:06:38;12.63;;;5.18;;
67571;SDS011;54397;47.506;19.158;2022-08-18T19:10:12;8.10;;;5.00;;
67571;SDS011;54397;47.506;19.158;2022-08-18T19:13:46;6.07;;;5.00;;
67571;SDS011;54397;47.506;19.158;2022-08-18T19:20:57;7.82;;;5.20;;
67571;SDS011;54397;47.506;19.158;2022-08-18T19:24:57;10.15;;;5.63;;
67571;SDS011;54397;47.506;19.158;2022-08-18T19:28:28;9.02;;;5.53;;
67571;SDS011;54397;47.506;19.158;2022-08-18T19:32:31;11.35;;;5.13;;
67571;SDS011;54397;47.506;19.158;2022-08-18T19:39:23;11.57;;;5.30;;
67571;SDS011;54397;47.506;19.158;2022-08-18T19:42:56;7.90;;;4.93;;
67571;SDS011;54397;47.506;19.158;2022-08-18T20:08:50;9.73;;;5.30;;
67571;SDS011;54397;47.506;19.158;2022-08-18T20:16:13;9.50;;;5.18;;
67571;SDS011;54397;47.506;19.158;2022-08-18T20:20:13;7.97;;;5.07;;
67571;SDS011;54397;47.506;19.158;2022-08-18T20:23:56;9.60;;;4.72;;
67571;SDS011;54397;47.506;19.158;2022-08-18T20:31:04;7.15;;;5.68;;
67571;SDS011;54397;47.506;19.158;2022-08-18T20:34:35;6.75;;;5.53;;
67571;SDS011;54397;47.506;19.158;2022-08-18T20:38:22;7.90;;;6.10;;
67571;SDS011;54397;47.506;19.158;2022-08-18T20:41:55;7.57;;;5.15;;
67571;SDS011;54397;47.506;19.158;2022-08-18T20:45:26;8.23;;;5.25;;
67571;SDS011;54397;47.506;19.158;2022-08-18T20:49:02;12.55;;;5.28;;
67571;SDS011;54397;47.506;19.158;2022-08-18T21:00:12;8.90;;;5.15;;
67571;SDS011;54397;47.506;19.158;2022-08-18T21:03:47;9.38;;;5.35;;
67571;SDS011;54397;47.506;19.158;2022-08-18T21:07:19;8.20;;;5.22;;
67571;SDS011;54397;47.506;19.158;2022-08-18T21:11:04;11.32;;;5.82;;
67571;SDS011;54397;47.506;19.158;2022-08-18T21:14:32;7.85;;;5.88;;
67571;SDS011;54397;47.506;19.158;2022-08-18T21:17:58;8.48;;;5.40;;
67571;SDS011;54397;47.506;19.158;2022-08-18T21:21:26;8.55;;;5.28;;
67571;SDS011;54397;47.506;19.158;2022-08-18T21:24:52;8.73;;;5.70;;
67571;SDS011;54397;47.506;19.158;2022-08-18T21:28:14;8.85;;;5.50;;
67571;SDS011;54397;47.506;19.158;2022-08-18T21:31:43;8.30;;;5.57;;
67571;SDS011;54397;47.506;19.158;2022-08-18T21:35:32;11.40;;;5.70;;
67571;SDS011;54397;47.506;19.158;2022-08-18T21:38:59;8.27;;;5.40;;
67571;SDS011;54397;47.506;19.158;2022-08-18T21:42:43;8.15;;;5.63;;
67571;SDS011;54397;47.506;19.158;2022-08-18T21:46:08;6.72;;;5.07;;
67571;SDS011;54397;47.506;19.158;2022-08-18T21:52:56;8.43;;;5.07;;
67571;SDS011;54397;47.506;19.158;2022-08-18T21:56:36;7.05;;;5.18;;
67571;SDS011;54397;47.506;19.158;2022-08-18T22:00:16;8.30;;;5.43;;
67571;SDS011;54397;47.506;19.158;2022-08-18T22:03:55;8.30;;;5.40;;
67571;SDS011;54397;47.506;19.158;2022-08-18T22:07:46;6.40;;;5.47;;
67571;SDS011;54397;47.506;19.158;2022-08-18T22:15:17;9.90;;;6.22;;
67571;SDS011;54397;47.506;19.158;2022-08-18T22:18:51;8.75;;;5.75;;
67571;SDS011;54397;47.506;19.158;2022-08-18T22:22:31;8.63;;;5.70;;
67571;SDS011;54397;47.506;19.158;2022-08-18T22:30:02;5.88;;;5.20;;
67571;SDS011;54397;47.506;19.158;2022-08-18T22:33:25;9.40;;;5.35;;
67571;SDS011;54397;47.506;19.158;2022-08-18T22:36:52;9.35;;;5.35;;
67571;SDS011;54397;47.506;19.158;2022-08-18T22:40:16;12.45;;;5.82;;
67571;SDS011;54397;47.506;19.158;2022-08-18T22:43:42;8.23;;;5.65;;
67571;SDS011;54397;47.506;19.158;2022-08-18T22:47:06;9.23;;;5.65;;
67571;SDS011;54397;47.506;19.158;2022-08-18T22:50:28;9.52;;;6.18;;
67571;SDS011;54397;47.506;19.158;2022-08-18T22:53:53;8.65;;;6.05;;
67571;SDS011;54397;47.506;19.158;2022-08-18T22:57:18;9.63;;;5.70;;
67571;SDS011;54397;47.506;19.158;2022-08-18T23:00:46;8.85;;;5.43;;
67571;SDS011;54397;47.506;19.158;2022-08-18T23:04:08;6.78;;;6.03;;
67571;SDS011;54397;47.506;19.158;2022-08-18T23:07:33;7.25;;;5.30;;
67571;SDS011;54397;47.506;19.158;2022-08-18T23:10:55;8.55;;;5.80;;
67571;SDS011;54397;47.506;19.158;2022-08-18T23:14:17;6.93;;;5.28;;
67571;SDS011;54397;47.506;19.158;2022-08-18T23:17:39;8.48;;;5.70;;
67571;SDS011;54397;47.506;19.158;2022-08-18T23:21:04;7.03;;;5.53;;
67571;SDS011;54397;47.506;19.158;2022-08-18T23:24:32;8.50;;;5.88;;
67571;SDS011;54397;47.506;19.158;2022-08-18T23:27:53;9.35;;;6.18;;
67571;SDS011;54397;47.506;19.158;2022-08-18T23:31:15;14.73;;;5.78;;
67571;SDS011;54397;47.506;19.158;2022-08-18T23:34:37;8.95;;;5.97;;
67571;SDS011;54397;47.506;19.158;2022-08-18T23:37:59;10.82;;;5.60;;
67571;SDS011;54397;47.506;19.158;2022-08-18T23:41:26;7.85;;;5.57;;
67571;SDS011;54397;47.506;19.158;2022-08-18T23:44:50;9.68;;;5.88;;
67571;SDS011;54397;47.506;19.158;2022-08-18T23:48:12;8.52;;;6.40;;
67571;SDS011;54397;47.506;19.158;2022-08-18T23:51:39;9.93;;;5.97;;
67571;SDS011;54397;47.506;19.158;2022-08-18T23:55:10;7.35;;;5.97;;
67571;SDS011;54397;47.506;19.158;2022-08-18T23:58:33;7.95;;;6.05;;
